sensor_id;sensor_type;location;lat;lon;timestamp;temperature;humidity
12959;DHT22;6544;51.666;6.634;2023-08-12T00:01:36;22.40;1.00
12959;DHT22;6544;51.666;6.634;2023-08-12T00:04:03;22.40;1.00
12959;DHT22;6544;51.666;6.634;2023-08-12T00:06:30;22.40;1.00
12959;DHT22;6544;51.666;6.634;2023-08-12T00:08:57;22.40;1.00
12959;DHT22;6544;51.666;6.634;2023-08-12T00:11:24;22.40;99.90
12959;DHT22;6544;51.666;6.634;2023-08-12T00:13:51;22.40;99.90
12959;DHT22;6544;51.666;6.634;2023-08-12T00:16:18;22.30;99.90
12959;DHT22;6544;51.666;6.634;2023-08-12T00:18:46;22.30;99.90
12959;DHT22;6544;51.666;6.634;2023-08-12T00:21:13;22.30;99.90
12959;DHT22;6544;51.666;6.634;2023-08-12T00:23:41;22.30;99.90
12959;DHT22;6544;51.666;6.634;2023-08-12T00:26:08;22.20;99.90
12959;DHT22;6544;51.666;6.634;2023-08-12T00:28:36;22.20;99.90
12959;DHT22;6544;51.666;6.634;2023-08-12T00:31:03;22.20;99.90
12959;DHT22;6544;51.666;6.634;2023-08-12T00:33:30;22.20;99.90
12959;DHT22;6544;51.666;6.634;2023-08-12T00:35:58;22.10;99.90
12959;DHT22;6544;51.666;6.634;2023-08-12T00:38:25;22.20;99.90
12959;DHT22;6544;51.666;6.634;2023-08-12T00:40:51;22.20;99.90
12959;DHT22;6544;51.666;6.634;2023-08-12T00:43:18;22.20;99.90
12959;DHT22;6544;51.666;6.634;2023-08-12T00:45:45;22.20;99.90
12959;DHT22;6544;51.666;6.634;2023-08-12T00:48:13;22.20;99.90
12959;DHT22;6544;51.666;6.634;2023-08-12T00:50:41;22.10;99.90
12959;DHT22;6544;51.666;6.634;2023-08-12T00:53:10;22.10;99.90
12959;DHT22;6544;51.666;6.634;2023-08-12T00:55:38;22.10;99.90
12959;DHT22;6544;51.666;6.634;2023-08-12T00:58:05;22.10;99.90
12959;DHT22;6544;51.666;6.634;2023-08-12T01:00:33;22.00;99.90
12959;DHT22;6544;51.666;6.634;2023-08-12T01:03:00;22.00;99.90
12959;DHT22;6544;51.666;6.634;2023-08-12T01:05:29;22.00;99.90
12959;DHT22;6544;51.666;6.634;2023-08-12T01:07:56;21.90;1.00
12959;DHT22;6544;51.666;6.634;2023-08-12T01:10:28;22.00;1.00
12959;DHT22;6544;51.666;6.634;2023-08-12T01:13:07;21.90;1.00
12959;DHT22;6544;51.666;6.634;2023-08-12T01:15:35;21.90;1.00
12959;DHT22;6544;51.666;6.634;2023-08-12T01:18:04;21.90;1.00
12959;DHT22;6544;51.666;6.634;2023-08-12T01:20:31;21.90;1.00
12959;DHT22;6544;51.666;6.634;2023-08-12T01:23:10;21.90;1.00
12959;DHT22;6544;51.666;6.634;2023-08-12T01:25:37;21.80;1.00
12959;DHT22;6544;51.666;6.634;2023-08-12T01:28:05;21.80;1.00
12959;DHT22;6544;51.666;6.634;2023-08-12T01:30:32;21.80;1.00
12959;DHT22;6544;51.666;6.634;2023-08-12T01:33:08;21.80;1.00
12959;DHT22;6544;51.666;6.634;2023-08-12T01:35:40;21.90;1.00
12959;DHT22;6544;51.666;6.634;2023-08-12T01:38:08;21.90;1.00
12959;DHT22;6544;51.666;6.634;2023-08-12T01:40:38;21.90;1.00
12959;DHT22;6544;51.666;6.634;2023-08-12T01:43:06;21.90;1.00
12959;DHT22;6544;51.666;6.634;2023-08-12T01:45:33;21.80;1.00
12959;DHT22;6544;51.666;6.634;2023-08-12T01:48:00;21.90;1.00
12959;DHT22;6544;51.666;6.634;2023-08-12T01:50:28;21.90;1.00
12959;DHT22;6544;51.666;6.634;2023-08-12T01:52:55;21.90;1.00
12959;DHT22;6544;51.666;6.634;2023-08-12T01:55:22;21.90;1.00
12959;DHT22;6544;51.666;6.634;2023-08-12T01:57:50;21.80;1.00
12959;DHT22;6544;51.666;6.634;2023-08-12T02:00:17;21.80;1.00
12959;DHT22;6544;51.666;6.634;2023-08-12T02:02:44;21.80;1.00
12959;DHT22;6544;51.666;6.634;2023-08-12T02:05:12;21.90;1.00
12959;DHT22;6544;51.666;6.634;2023-08-12T02:07:39;21.90;1.00
12959;DHT22;6544;51.666;6.634;2023-08-12T02:10:06;21.90;1.00
12959;DHT22;6544;51.666;6.634;2023-08-12T02:12:33;21.90;1.00
12959;DHT22;6544;51.666;6.634;2023-08-12T02:15:01;21.90;1.00
12959;DHT22;6544;51.666;6.634;2023-08-12T02:17:29;21.80;1.00
12959;DHT22;6544;51.666;6.634;2023-08-12T02:19:55;21.80;1.00
12959;DHT22;6544;51.666;6.634;2023-08-12T02:22:22;21.80;1.00
12959;DHT22;6544;51.666;6.634;2023-08-12T02:24:50;21.80;1.00
12959;DHT22;6544;51.666;6.634;2023-08-12T02:27:17;21.80;1.00
12959;DHT22;6544;51.666;6.634;2023-08-12T02:29:44;21.70;1.00
12959;DHT22;6544;51.666;6.634;2023-08-12T02:32:12;21.80;1.00
12959;DHT22;6544;51.666;6.634;2023-08-12T02:34:39;21.80;1.00
12959;DHT22;6544;51.666;6.634;2023-08-12T02:37:06;21.70;1.00
12959;DHT22;6544;51.666;6.634;2023-08-12T02:39:32;21.70;1.00
12959;DHT22;6544;51.666;6.634;2023-08-12T02:41:59;21.70;1.00
12959;DHT22;6544;51.666;6.634;2023-08-12T02:44:26;21.70;1.00
12959;DHT22;6544;51.666;6.634;2023-08-12T02:46:53;21.70;1.00
12959;DHT22;6544;51.666;6.634;2023-08-12T02:49:21;21.70;1.00
12959;DHT22;6544;51.666;6.634;2023-08-12T02:51:48;21.60;1.00
12959;DHT22;6544;51.666;6.634;2023-08-12T02:54:15;21.50;1.00
12959;DHT22;6544;51.666;6.634;2023-08-12T02:56:43;21.60;1.00
12959;DHT22;6544;51.666;6.634;2023-08-12T02:59:10;21.60;1.00
12959;DHT22;6544;51.666;6.634;2023-08-12T03:01:37;21.70;1.00
12959;DHT22;6544;51.666;6.634;2023-08-12T03:04:04;21.70;1.00
12959;DHT22;6544;51.666;6.634;2023-08-12T03:06:33;21.70;1.00
12959;DHT22;6544;51.666;6.634;2023-08-12T03:09:00;21.70;1.00
12959;DHT22;6544;51.666;6.634;2023-08-12T03:11:26;21.60;1.00
12959;DHT22;6544;51.666;6.634;2023-08-12T03:13:53;21.60;1.00
12959;DHT22;6544;51.666;6.634;2023-08-12T03:16:20;21.60;1.00
12959;DHT22;6544;51.666;6.634;2023-08-12T03:18:47;21.70;1.00
12959;DHT22;6544;51.666;6.634;2023-08-12T03:21:14;21.70;1.00
12959;DHT22;6544;51.666;6.634;2023-08-12T03:23:42;21.70;1.00
12959;DHT22;6544;51.666;6.634;2023-08-12T03:26:09;21.80;1.00
12959;DHT22;6544;51.666;6.634;2023-08-12T03:28:36;21.80;1.00
12959;DHT22;6544;51.666;6.634;2023-08-12T03:31:03;21.70;1.00
12959;DHT22;6544;51.666;6.634;2023-08-12T03:33:30;21.80;1.00
12959;DHT22;6544;51.666;6.634;2023-08-12T03:35:59;21.70;1.00
12959;DHT22;6544;51.666;6.634;2023-08-12T03:38:26;21.70;1.00
12959;DHT22;6544;51.666;6.634;2023-08-12T03:40:54;21.70;1.00
12959;DHT22;6544;51.666;6.634;2023-08-12T03:43:21;21.70;1.00
12959;DHT22;6544;51.666;6.634;2023-08-12T03:45:48;21.60;1.00
12959;DHT22;6544;51.666;6.634;2023-08-12T03:48:15;21.60;1.00
12959;DHT22;6544;51.666;6.634;2023-08-12T03:50:42;21.60;1.00
12959;DHT22;6544;51.666;6.634;2023-08-12T03:53:11;21.60;1.00
12959;DHT22;6544;51.666;6.634;2023-08-12T03:55:37;21.60;1.00
12959;DHT22;6544;51.666;6.634;2023-08-12T03:58:06;21.50;1.00
12959;DHT22;6544;51.666;6.634;2023-08-12T04:00:33;21.50;1.00
12959;DHT22;6544;51.666;6.634;2023-08-12T04:02:59;21.40;1.00
12959;DHT22;6544;51.666;6.634;2023-08-12T04:05:26;21.50;90.50
12959;DHT22;6544;51.666;6.634;2023-08-12T04:07:53;21.50;35.80
12959;DHT22;6544;51.666;6.634;2023-08-12T04:10:20;21.50;73.60
12959;DHT22;6544;51.666;6.634;2023-08-12T04:12:47;21.50;99.90
12959;DHT22;6544;51.666;6.634;2023-08-12T04:15:15;21.50;74.80
12959;DHT22;6544;51.666;6.634;2023-08-12T04:17:42;21.60;41.60
12959;DHT22;6544;51.666;6.634;2023-08-12T04:20:09;21.50;1.00
12959;DHT22;6544;51.666;6.634;2023-08-12T04:22:37;21.50;50.10
12959;DHT22;6544;51.666;6.634;2023-08-12T04:25:04;21.60;18.40
12959;DHT22;6544;51.666;6.634;2023-08-12T04:27:31;21.50;66.30
12959;DHT22;6544;51.666;6.634;2023-08-12T04:29:58;21.50;99.90
12959;DHT22;6544;51.666;6.634;2023-08-12T04:32:26;21.50;98.10
12959;DHT22;6544;51.666;6.634;2023-08-12T04:34:53;21.50;99.90
12959;DHT22;6544;51.666;6.634;2023-08-12T04:37:20;21.50;99.90
12959;DHT22;6544;51.666;6.634;2023-08-12T04:39:49;21.50;99.90
12959;DHT22;6544;51.666;6.634;2023-08-12T04:42:16;21.50;99.90
12959;DHT22;6544;51.666;6.634;2023-08-12T04:44:43;21.50;99.90
12959;DHT22;6544;51.666;6.634;2023-08-12T04:47:09;21.50;99.90
12959;DHT22;6544;51.666;6.634;2023-08-12T04:49:38;21.50;99.90
12959;DHT22;6544;51.666;6.634;2023-08-12T04:52:05;21.50;99.90
12959;DHT22;6544;51.666;6.634;2023-08-12T04:54:32;21.50;99.90
12959;DHT22;6544;51.666;6.634;2023-08-12T04:56:59;21.40;99.90
12959;DHT22;6544;51.666;6.634;2023-08-12T04:59:26;21.50;99.90
12959;DHT22;6544;51.666;6.634;2023-08-12T05:01:53;21.50;99.90
12959;DHT22;6544;51.666;6.634;2023-08-12T05:04:19;21.40;99.90
12959;DHT22;6544;51.666;6.634;2023-08-12T05:06:48;21.40;99.90
12959;DHT22;6544;51.666;6.634;2023-08-12T05:09:14;21.40;99.90
12959;DHT22;6544;51.666;6.634;2023-08-12T05:11:41;21.40;1.00
12959;DHT22;6544;51.666;6.634;2023-08-12T05:14:08;21.40;1.00
12959;DHT22;6544;51.666;6.634;2023-08-12T05:16:35;21.40;1.00
12959;DHT22;6544;51.666;6.634;2023-08-12T05:19:02;21.30;1.00
12959;DHT22;6544;51.666;6.634;2023-08-12T05:21:29;21.40;1.00
12959;DHT22;6544;51.666;6.634;2023-08-12T05:23:57;21.40;1.00
12959;DHT22;6544;51.666;6.634;2023-08-12T05:26:24;21.30;1.00
12959;DHT22;6544;51.666;6.634;2023-08-12T05:28:51;21.40;45.60
12959;DHT22;6544;51.666;6.634;2023-08-12T05:31:18;21.40;53.40
12959;DHT22;6544;51.666;6.634;2023-08-12T05:33:45;21.40;15.30
12959;DHT22;6544;51.666;6.634;2023-08-12T05:36:12;21.40;1.00
12959;DHT22;6544;51.666;6.634;2023-08-12T05:38:38;21.40;1.00
12959;DHT22;6544;51.666;6.634;2023-08-12T05:41:07;21.40;1.00
12959;DHT22;6544;51.666;6.634;2023-08-12T05:43:34;21.40;1.00
12959;DHT22;6544;51.666;6.634;2023-08-12T05:46:00;21.40;1.00
12959;DHT22;6544;51.666;6.634;2023-08-12T05:48:28;21.40;1.00
12959;DHT22;6544;51.666;6.634;2023-08-12T05:50:55;21.40;1.00
12959;DHT22;6544;51.666;6.634;2023-08-12T05:53:22;21.40;1.00
12959;DHT22;6544;51.666;6.634;2023-08-12T05:55:49;21.40;1.00
12959;DHT22;6544;51.666;6.634;2023-08-12T05:58:17;21.40;1.00
12959;DHT22;6544;51.666;6.634;2023-08-12T06:00:45;21.40;1.00
12959;DHT22;6544;51.666;6.634;2023-08-12T06:03:12;21.40;1.00
12959;DHT22;6544;51.666;6.634;2023-08-12T06:05:40;21.40;1.00
12959;DHT22;6544;51.666;6.634;2023-08-12T06:08:07;21.40;1.00
12959;DHT22;6544;51.666;6.634;2023-08-12T06:10:34;21.40;1.00
12959;DHT22;6544;51.666;6.634;2023-08-12T06:13:01;21.40;99.90
12959;DHT22;6544;51.666;6.634;2023-08-12T06:15:30;21.50;99.90
12959;DHT22;6544;51.666;6.634;2023-08-12T06:17:57;21.50;99.90
12959;DHT22;6544;51.666;6.634;2023-08-12T06:20:24;21.40;99.90
12959;DHT22;6544;51.666;6.634;2023-08-12T06:22:51;21.40;99.90
12959;DHT22;6544;51.666;6.634;2023-08-12T06:25:19;21.40;99.90
12959;DHT22;6544;51.666;6.634;2023-08-12T06:27:46;21.40;99.90
12959;DHT22;6544;51.666;6.634;2023-08-12T06:30:14;21.50;99.90
12959;DHT22;6544;51.666;6.634;2023-08-12T06:32:42;21.40;99.90
12959;DHT22;6544;51.666;6.634;2023-08-12T06:35:09;21.40;99.90
12959;DHT22;6544;51.666;6.634;2023-08-12T06:37:36;21.40;99.90
12959;DHT22;6544;51.666;6.634;2023-08-12T06:40:03;21.40;99.90
12959;DHT22;6544;51.666;6.634;2023-08-12T06:42:30;21.40;99.90
12959;DHT22;6544;51.666;6.634;2023-08-12T06:44:59;21.40;99.90
12959;DHT22;6544;51.666;6.634;2023-08-12T06:47:26;21.40;1.00
12959;DHT22;6544;51.666;6.634;2023-08-12T06:49:56;21.40;99.90
12959;DHT22;6544;51.666;6.634;2023-08-12T06:52:23;21.40;99.90
12959;DHT22;6544;51.666;6.634;2023-08-12T06:54:50;21.40;99.90
12959;DHT22;6544;51.666;6.634;2023-08-12T06:57:16;21.40;1.00
12959;DHT22;6544;51.666;6.634;2023-08-12T06:59:43;21.30;21.70
12959;DHT22;6544;51.666;6.634;2023-08-12T07:02:11;21.30;21.10
12959;DHT22;6544;51.666;6.634;2023-08-12T07:04:38;21.30;1.00
12959;DHT22;6544;51.666;6.634;2023-08-12T07:07:06;21.30;90.20
12959;DHT22;6544;51.666;6.634;2023-08-12T07:09:33;21.30;60.10
12959;DHT22;6544;51.666;6.634;2023-08-12T07:12:00;21.30;99.90
12959;DHT22;6544;51.666;6.634;2023-08-12T07:14:28;21.10;1.00
12959;DHT22;6544;51.666;6.634;2023-08-12T07:16:55;21.10;1.00
12959;DHT22;6544;51.666;6.634;2023-08-12T07:19:22;21.10;1.00
12959;DHT22;6544;51.666;6.634;2023-08-12T07:21:49;21.20;1.00
12959;DHT22;6544;51.666;6.634;2023-08-12T07:24:17;21.30;99.90
12959;DHT22;6544;51.666;6.634;2023-08-12T07:26:44;21.30;99.90
12959;DHT22;6544;51.666;6.634;2023-08-12T07:29:11;21.20;1.00
12959;DHT22;6544;51.666;6.634;2023-08-12T07:31:38;21.20;1.00
12959;DHT22;6544;51.666;6.634;2023-08-12T07:34:05;21.20;1.00
12959;DHT22;6544;51.666;6.634;2023-08-12T07:36:38;21.20;1.00
12959;DHT22;6544;51.666;6.634;2023-08-12T07:39:05;21.20;1.00
12959;DHT22;6544;51.666;6.634;2023-08-12T07:41:33;21.10;1.00
12959;DHT22;6544;51.666;6.634;2023-08-12T07:44:00;21.20;1.00
12959;DHT22;6544;51.666;6.634;2023-08-12T07:46:27;21.20;1.00
12959;DHT22;6544;51.666;6.634;2023-08-12T07:48:55;21.10;1.00
12959;DHT22;6544;51.666;6.634;2023-08-12T07:51:22;21.20;99.90
12959;DHT22;6544;51.666;6.634;2023-08-12T07:53:49;21.10;99.90
12959;DHT22;6544;51.666;6.634;2023-08-12T07:56:16;21.10;99.90
12959;DHT22;6544;51.666;6.634;2023-08-12T07:58:44;21.10;92.70
12959;DHT22;6544;51.666;6.634;2023-08-12T08:01:11;21.00;99.90
12959;DHT22;6544;51.666;6.634;2023-08-12T08:03:39;21.00;1.00
12959;DHT22;6544;51.666;6.634;2023-08-12T08:06:06;21.00;1.00
12959;DHT22;6544;51.666;6.634;2023-08-12T08:08:33;21.00;1.00
12959;DHT22;6544;51.666;6.634;2023-08-12T08:10:59;21.00;1.00
12959;DHT22;6544;51.666;6.634;2023-08-12T08:13:26;20.90;1.00
12959;DHT22;6544;51.666;6.634;2023-08-12T08:15:55;20.90;1.00
12959;DHT22;6544;51.666;6.634;2023-08-12T08:18:22;21.00;18.10
12959;DHT22;6544;51.666;6.634;2023-08-12T08:20:48;20.90;48.00
12959;DHT22;6544;51.666;6.634;2023-08-12T08:23:15;20.90;80.20
12959;DHT22;6544;51.666;6.634;2023-08-12T08:25:42;20.90;88.20
12959;DHT22;6544;51.666;6.634;2023-08-12T08:28:09;20.90;99.90
12959;DHT22;6544;51.666;6.634;2023-08-12T08:30:36;20.90;99.90
12959;DHT22;6544;51.666;6.634;2023-08-12T08:33:05;20.90;99.90
12959;DHT22;6544;51.666;6.634;2023-08-12T08:35:32;20.90;99.90
12959;DHT22;6544;51.666;6.634;2023-08-12T08:37:59;21.00;99.90
12959;DHT22;6544;51.666;6.634;2023-08-12T08:40:27;20.90;99.90
12959;DHT22;6544;51.666;6.634;2023-08-12T08:42:54;20.90;99.90
12959;DHT22;6544;51.666;6.634;2023-08-12T08:45:22;20.80;99.90
12959;DHT22;6544;51.666;6.634;2023-08-12T08:47:50;20.90;99.90
12959;DHT22;6544;51.666;6.634;2023-08-12T08:50:20;20.90;99.90
12959;DHT22;6544;51.666;6.634;2023-08-12T08:52:47;20.90;99.90
12959;DHT22;6544;51.666;6.634;2023-08-12T08:55:15;20.90;99.90
12959;DHT22;6544;51.666;6.634;2023-08-12T08:57:43;21.00;99.90
12959;DHT22;6544;51.666;6.634;2023-08-12T09:00:12;21.00;99.90
12959;DHT22;6544;51.666;6.634;2023-08-12T09:02:41;21.00;99.90
12959;DHT22;6544;51.666;6.634;2023-08-12T09:05:09;21.00;99.90
12959;DHT22;6544;51.666;6.634;2023-08-12T09:07:38;21.00;99.90
12959;DHT22;6544;51.666;6.634;2023-08-12T09:10:07;21.00;29.20
12959;DHT22;6544;51.666;6.634;2023-08-12T09:12:36;21.00;59.40
12959;DHT22;6544;51.666;6.634;2023-08-12T09:15:04;21.00;99.90
12959;DHT22;6544;51.666;6.634;2023-08-12T09:17:32;21.10;64.90
12959;DHT22;6544;51.666;6.634;2023-08-12T09:19:59;21.10;1.00
12959;DHT22;6544;51.666;6.634;2023-08-12T09:22:26;21.10;1.00
12959;DHT22;6544;51.666;6.634;2023-08-12T09:24:57;21.10;1.00
12959;DHT22;6544;51.666;6.634;2023-08-12T09:27:24;21.10;1.00
12959;DHT22;6544;51.666;6.634;2023-08-12T09:29:56;21.10;40.50
12959;DHT22;6544;51.666;6.634;2023-08-12T09:32:23;21.10;75.10
12959;DHT22;6544;51.666;6.634;2023-08-12T09:34:51;21.10;1.00
12959;DHT22;6544;51.666;6.634;2023-08-12T09:37:18;21.20;1.00
12959;DHT22;6544;51.666;6.634;2023-08-12T09:39:47;21.20;1.00
12959;DHT22;6544;51.666;6.634;2023-08-12T09:42:16;21.20;1.00
12959;DHT22;6544;51.666;6.634;2023-08-12T09:44:44;21.20;99.90
12959;DHT22;6544;51.666;6.634;2023-08-12T09:47:11;21.30;99.90
12959;DHT22;6544;51.666;6.634;2023-08-12T09:49:39;21.30;1.00
12959;DHT22;6544;51.666;6.634;2023-08-12T09:52:07;21.30;1.00
12959;DHT22;6544;51.666;6.634;2023-08-12T09:54:35;21.30;1.00
12959;DHT22;6544;51.666;6.634;2023-08-12T09:57:04;21.40;91.30
12959;DHT22;6544;51.666;6.634;2023-08-12T09:59:35;21.40;1.00
12959;DHT22;6544;51.666;6.634;2023-08-12T10:02:02;21.40;1.00
12959;DHT22;6544;51.666;6.634;2023-08-12T10:04:37;21.40;1.00
12959;DHT22;6544;51.666;6.634;2023-08-12T10:07:05;21.50;99.90
12959;DHT22;6544;51.666;6.634;2023-08-12T10:09:33;21.50;99.90
12959;DHT22;6544;51.666;6.634;2023-08-12T10:12:03;21.50;99.90
12959;DHT22;6544;51.666;6.634;2023-08-12T10:14:31;21.50;1.00
12959;DHT22;6544;51.666;6.634;2023-08-12T10:17:00;21.50;99.90
12959;DHT22;6544;51.666;6.634;2023-08-12T10:19:28;21.50;95.30
12959;DHT22;6544;51.666;6.634;2023-08-12T10:21:56;21.60;99.90
12959;DHT22;6544;51.666;6.634;2023-08-12T10:24:26;21.60;1.00
12959;DHT22;6544;51.666;6.634;2023-08-12T10:26:53;21.60;1.00
12959;DHT22;6544;51.666;6.634;2023-08-12T10:29:23;21.60;1.00
12959;DHT22;6544;51.666;6.634;2023-08-12T10:31:50;21.70;99.90
12959;DHT22;6544;51.666;6.634;2023-08-12T10:34:23;21.70;99.90
12959;DHT22;6544;51.666;6.634;2023-08-12T10:36:54;21.80;99.90
12959;DHT22;6544;51.666;6.634;2023-08-12T10:39:24;21.70;1.00
12959;DHT22;6544;51.666;6.634;2023-08-12T10:41:54;21.70;1.00
12959;DHT22;6544;51.666;6.634;2023-08-12T10:44:25;21.70;1.00
12959;DHT22;6544;51.666;6.634;2023-08-12T10:46:53;21.70;1.00
12959;DHT22;6544;51.666;6.634;2023-08-12T10:49:22;21.60;1.00
12959;DHT22;6544;51.666;6.634;2023-08-12T10:51:51;21.70;99.90
12959;DHT22;6544;51.666;6.634;2023-08-12T10:54:21;21.70;99.90
12959;DHT22;6544;51.666;6.634;2023-08-12T10:57:09;21.80;1.00
12959;DHT22;6544;51.666;6.634;2023-08-12T10:59:51;21.80;99.90
12959;DHT22;6544;51.666;6.634;2023-08-12T11:02:19;21.90;82.60
12959;DHT22;6544;51.666;6.634;2023-08-12T11:04:52;21.90;1.00
12959;DHT22;6544;51.666;6.634;2023-08-12T11:07:20;21.80;1.00
12959;DHT22;6544;51.666;6.634;2023-08-12T11:09:52;21.90;1.00
12959;DHT22;6544;51.666;6.634;2023-08-12T11:12:29;22.00;1.00
12959;DHT22;6544;51.666;6.634;2023-08-12T11:14:58;21.90;99.90
12959;DHT22;6544;51.666;6.634;2023-08-12T11:17:33;22.00;99.90
12959;DHT22;6544;51.666;6.634;2023-08-12T11:20:04;22.10;99.90
12959;DHT22;6544;51.666;6.634;2023-08-12T11:22:35;22.20;99.90
12959;DHT22;6544;51.666;6.634;2023-08-12T11:25:04;22.20;1.00
12959;DHT22;6544;51.666;6.634;2023-08-12T11:27:41;22.20;1.00
12959;DHT22;6544;51.666;6.634;2023-08-12T11:30:09;22.20;1.00
12959;DHT22;6544;51.666;6.634;2023-08-12T11:32:37;22.20;1.00
12959;DHT22;6544;51.666;6.634;2023-08-12T11:35:07;22.10;1.00
12959;DHT22;6544;51.666;6.634;2023-08-12T11:37:35;22.00;1.00
12959;DHT22;6544;51.666;6.634;2023-08-12T11:40:03;22.00;1.00
12959;DHT22;6544;51.666;6.634;2023-08-12T11:42:30;22.00;1.00
12959;DHT22;6544;51.666;6.634;2023-08-12T11:44:57;21.80;1.00
12959;DHT22;6544;51.666;6.634;2023-08-12T11:47:24;21.90;1.00
12959;DHT22;6544;51.666;6.634;2023-08-12T11:49:52;21.90;1.00
12959;DHT22;6544;51.666;6.634;2023-08-12T11:52:20;21.90;1.00
12959;DHT22;6544;51.666;6.634;2023-08-12T11:54:49;22.00;1.00
12959;DHT22;6544;51.666;6.634;2023-08-12T11:57:16;22.20;1.00
12959;DHT22;6544;51.666;6.634;2023-08-12T11:59:43;22.30;99.90
12959;DHT22;6544;51.666;6.634;2023-08-12T12:02:11;22.40;1.00
12959;DHT22;6544;51.666;6.634;2023-08-12T12:04:41;22.40;99.90
12959;DHT22;6544;51.666;6.634;2023-08-12T12:07:17;22.50;99.90
12959;DHT22;6544;51.666;6.634;2023-08-12T12:09:46;22.60;99.90
12959;DHT22;6544;51.666;6.634;2023-08-12T12:12:13;22.50;99.90
12959;DHT22;6544;51.666;6.634;2023-08-12T12:14:40;22.20;99.90
12959;DHT22;6544;51.666;6.634;2023-08-12T12:17:08;22.40;99.90
12959;DHT22;6544;51.666;6.634;2023-08-12T12:19:36;22.50;1.00
12959;DHT22;6544;51.666;6.634;2023-08-12T12:22:03;22.40;99.90
12959;DHT22;6544;51.666;6.634;2023-08-12T12:24:31;22.70;1.00
12959;DHT22;6544;51.666;6.634;2023-08-12T12:27:00;22.70;99.90
12959;DHT22;6544;51.666;6.634;2023-08-12T12:29:27;22.60;99.90
12959;DHT22;6544;51.666;6.634;2023-08-12T12:31:54;22.70;99.90
12959;DHT22;6544;51.666;6.634;2023-08-12T12:34:20;22.70;1.00
12959;DHT22;6544;51.666;6.634;2023-08-12T12:36:48;22.80;1.00
12959;DHT22;6544;51.666;6.634;2023-08-12T12:39:15;22.90;1.00
12959;DHT22;6544;51.666;6.634;2023-08-12T12:41:42;22.80;1.00
12959;DHT22;6544;51.666;6.634;2023-08-12T12:44:10;22.90;99.90
12959;DHT22;6544;51.666;6.634;2023-08-12T12:46:37;23.10;1.00
12959;DHT22;6544;51.666;6.634;2023-08-12T12:49:04;23.20;99.90
12959;DHT22;6544;51.666;6.634;2023-08-12T12:51:32;23.30;99.90
12959;DHT22;6544;51.666;6.634;2023-08-12T12:53:58;23.30;99.90
12959;DHT22;6544;51.666;6.634;2023-08-12T12:56:25;23.00;99.90
12959;DHT22;6544;51.666;6.634;2023-08-12T12:58:52;22.90;99.90
12959;DHT22;6544;51.666;6.634;2023-08-12T13:01:20;22.90;99.90
12959;DHT22;6544;51.666;6.634;2023-08-12T13:03:47;22.60;59.80
12959;DHT22;6544;51.666;6.634;2023-08-12T13:06:14;22.70;88.30
12959;DHT22;6544;51.666;6.634;2023-08-12T13:08:41;22.80;1.00
12959;DHT22;6544;51.666;6.634;2023-08-12T13:11:08;22.80;47.50
12959;DHT22;6544;51.666;6.634;2023-08-12T13:13:35;22.50;1.00
12959;DHT22;6544;51.666;6.634;2023-08-12T13:16:02;22.50;1.00
12959;DHT22;6544;51.666;6.634;2023-08-12T13:18:30;22.60;1.00
12959;DHT22;6544;51.666;6.634;2023-08-12T13:20:57;22.50;99.90
12959;DHT22;6544;51.666;6.634;2023-08-12T13:23:24;22.60;99.90
12959;DHT22;6544;51.666;6.634;2023-08-12T13:25:51;22.50;99.90
12959;DHT22;6544;51.666;6.634;2023-08-12T13:28:18;22.70;99.90
12959;DHT22;6544;51.666;6.634;2023-08-12T13:30:45;22.60;99.90
12959;DHT22;6544;51.666;6.634;2023-08-12T13:33:12;22.60;99.90
12959;DHT22;6544;51.666;6.634;2023-08-12T13:35:41;22.80;10.90
12959;DHT22;6544;51.666;6.634;2023-08-12T13:38:08;22.50;2.20
12959;DHT22;6544;51.666;6.634;2023-08-12T13:40:35;22.50;1.00
12959;DHT22;6544;51.666;6.634;2023-08-12T13:43:01;22.30;1.00
12959;DHT22;6544;51.666;6.634;2023-08-12T13:45:28;22.30;1.00
12959;DHT22;6544;51.666;6.634;2023-08-12T13:47:55;22.30;1.00
12959;DHT22;6544;51.666;6.634;2023-08-12T13:50:22;22.30;1.00
12959;DHT22;6544;51.666;6.634;2023-08-12T13:52:50;22.30;1.00
12959;DHT22;6544;51.666;6.634;2023-08-12T13:55:18;22.20;1.00
12959;DHT22;6544;51.666;6.634;2023-08-12T13:57:44;22.40;1.00
12959;DHT22;6544;51.666;6.634;2023-08-12T14:00:12;22.60;1.00
12959;DHT22;6544;51.666;6.634;2023-08-12T14:02:40;22.70;1.00
12959;DHT22;6544;51.666;6.634;2023-08-12T14:05:07;22.70;1.00
12959;DHT22;6544;51.666;6.634;2023-08-12T14:07:35;22.70;1.00
12959;DHT22;6544;51.666;6.634;2023-08-12T14:10:05;22.80;1.00
12959;DHT22;6544;51.666;6.634;2023-08-12T14:12:34;23.10;1.00
12959;DHT22;6544;51.666;6.634;2023-08-12T14:15:01;23.10;1.00
12959;DHT22;6544;51.666;6.634;2023-08-12T14:17:29;23.10;1.00
12959;DHT22;6544;51.666;6.634;2023-08-12T14:19:55;22.90;1.00
12959;DHT22;6544;51.666;6.634;2023-08-12T14:22:24;23.10;1.00
12959;DHT22;6544;51.666;6.634;2023-08-12T14:24:50;23.10;1.00
12959;DHT22;6544;51.666;6.634;2023-08-12T14:27:19;22.90;99.90
12959;DHT22;6544;51.666;6.634;2023-08-12T14:29:46;22.90;1.00
12959;DHT22;6544;51.666;6.634;2023-08-12T14:32:13;23.00;99.90
12959;DHT22;6544;51.666;6.634;2023-08-12T14:34:42;23.00;1.00
12959;DHT22;6544;51.666;6.634;2023-08-12T14:37:12;22.80;99.90
12959;DHT22;6544;51.666;6.634;2023-08-12T14:39:39;22.80;99.90
12959;DHT22;6544;51.666;6.634;2023-08-12T14:42:06;22.80;99.90
12959;DHT22;6544;51.666;6.634;2023-08-12T14:44:35;22.90;99.90
12959;DHT22;6544;51.666;6.634;2023-08-12T14:47:02;22.90;99.90
12959;DHT22;6544;51.666;6.634;2023-08-12T14:49:30;22.90;99.90
12959;DHT22;6544;51.666;6.634;2023-08-12T14:51:57;23.00;99.90
12959;DHT22;6544;51.666;6.634;2023-08-12T14:54:24;23.00;99.90
12959;DHT22;6544;51.666;6.634;2023-08-12T14:56:51;23.00;99.90
12959;DHT22;6544;51.666;6.634;2023-08-12T14:59:17;23.10;99.90
12959;DHT22;6544;51.666;6.634;2023-08-12T15:01:46;23.20;99.90
12959;DHT22;6544;51.666;6.634;2023-08-12T15:04:13;23.20;99.90
12959;DHT22;6544;51.666;6.634;2023-08-12T15:06:40;23.00;99.90
12959;DHT22;6544;51.666;6.634;2023-08-12T15:09:07;23.00;99.90
12959;DHT22;6544;51.666;6.634;2023-08-12T15:11:35;23.20;99.90
12959;DHT22;6544;51.666;6.634;2023-08-12T15:14:01;23.30;99.90
12959;DHT22;6544;51.666;6.634;2023-08-12T15:16:28;23.40;99.90
12959;DHT22;6544;51.666;6.634;2023-08-12T15:18:58;23.20;99.90
12959;DHT22;6544;51.666;6.634;2023-08-12T15:21:25;23.30;99.90
12959;DHT22;6544;51.666;6.634;2023-08-12T15:23:52;23.20;99.90
12959;DHT22;6544;51.666;6.634;2023-08-12T15:26:19;23.10;99.90
12959;DHT22;6544;51.666;6.634;2023-08-12T15:28:48;23.20;99.90
12959;DHT22;6544;51.666;6.634;2023-08-12T15:31:15;23.10;99.90
12959;DHT22;6544;51.666;6.634;2023-08-12T15:33:42;23.10;99.90
12959;DHT22;6544;51.666;6.634;2023-08-12T15:36:10;23.20;99.90
12959;DHT22;6544;51.666;6.634;2023-08-12T15:38:37;23.20;99.90
12959;DHT22;6544;51.666;6.634;2023-08-12T15:41:12;23.30;99.90
12959;DHT22;6544;51.666;6.634;2023-08-12T15:43:39;23.30;99.90
12959;DHT22;6544;51.666;6.634;2023-08-12T15:46:06;23.30;99.90
12959;DHT22;6544;51.666;6.634;2023-08-12T15:48:33;23.40;99.90
12959;DHT22;6544;51.666;6.634;2023-08-12T15:51:00;23.30;99.90
12959;DHT22;6544;51.666;6.634;2023-08-12T15:53:28;23.30;99.90
12959;DHT22;6544;51.666;6.634;2023-08-12T15:55:55;23.30;99.90
12959;DHT22;6544;51.666;6.634;2023-08-12T15:58:22;23.30;99.90